METAR Data
IDs: Format: Raw Decoded Include TAF

Data at: 1607 UTC 04 Aug 2021

KASW 041555Z AUTO 06004KT 10SM CLR 25/12 A3016 RMK AO2